createdAt,value
2018-09-16T00:00:50.603Z,56.73
2018-09-16T00:03:19.563Z,56.80
2018-09-16T00:05:48.566Z,56.63
2018-09-16T00:08:17.496Z,56.80
2018-09-16T00:10:46.432Z,56.59
2018-09-16T00:13:15.394Z,57.67
2018-09-16T00:15:44.290Z,57.30
2018-09-16T00:18:13.175Z,57.60
2018-09-16T00:20:42.546Z,57.79
2018-09-16T00:23:11.572Z,57.60
2018-09-16T00:25:40.527Z,57.33
2018-09-16T00:28:09.427Z,58.56
2018-09-16T00:30:38.316Z,58.37
2018-09-16T00:33:07.214Z,58.25
2018-09-16T00:35:36.228Z,58.44
2018-09-16T00:38:05.141Z,57.95
2018-09-16T00:40:34.035Z,58.10
2018-09-16T00:43:03.018Z,57.89
2018-09-16T00:45:31.941Z,57.60
2018-09-16T00:48:00.851Z,57.03
2018-09-16T00:50:29.754Z,57.44
2018-09-16T00:52:58.632Z,58.01
2018-09-16T00:55:27.548Z,58.52
2018-09-16T00:57:56.431Z,58.37
2018-09-16T01:00:25.385Z,58.38
2018-09-16T01:02:54.274Z,58.28
2018-09-16T01:05:23.207Z,58.01
2018-09-16T01:07:52.181Z,59.46
2018-09-16T01:10:21.115Z,58.78
2018-09-16T01:12:50.136Z,59.16
2018-09-16T01:15:19.161Z,58.56
2018-09-16T01:17:48.090Z,58.23
2018-09-16T01:20:16.997Z,58.44
2018-09-16T01:22:45.998Z,59.64
2018-09-16T01:25:14.888Z,59.72
2018-09-16T01:27:43.824Z,59.10
2018-09-16T01:30:12.732Z,59.03
2018-09-16T01:32:41.700Z,58.36
2018-09-16T01:35:10.623Z,58.63
2018-09-16T01:37:44.731Z,59.67
2018-09-16T01:40:13.691Z,59.28
2018-09-16T01:42:42.572Z,59.81
2018-09-16T01:45:11.598Z,59.04
2018-09-16T01:47:40.580Z,59.26
2018-09-16T01:50:09.576Z,59.12
2018-09-16T01:52:38.444Z,59.51
2018-09-16T01:55:07.386Z,58.86
2018-09-16T01:57:36.283Z,59.53
2018-09-16T02:00:05.375Z,59.00
2018-09-16T02:02:34.280Z,59.54
2018-09-16T02:05:03.170Z,59.48
2018-09-16T02:07:32.257Z,58.54
2018-09-16T02:10:01.164Z,58.87
2018-09-16T02:12:30.234Z,57.36
2018-09-16T02:14:59.132Z,57.85
2018-09-16T02:17:28.089Z,57.73
2018-09-16T02:19:57.038Z,58.91
2018-09-16T02:22:25.927Z,59.16
2018-09-16T02:24:54.851Z,59.26
2018-09-16T02:27:23.735Z,59.22
2018-09-16T02:29:52.717Z,59.11
2018-09-16T02:32:21.660Z,60.10
2018-09-16T02:34:50.647Z,59.19
2018-09-16T02:37:19.681Z,59.52
2018-09-16T02:39:48.576Z,59.24
2018-09-16T02:42:17.480Z,59.31
2018-09-16T02:44:46.350Z,60.11
2018-09-16T02:47:15.352Z,60.40
2018-09-16T02:49:44.912Z,59.45
2018-09-16T02:52:13.866Z,59.16
2018-09-16T02:54:42.767Z,59.17
2018-09-16T02:57:11.663Z,59.02
2018-09-16T02:59:40.555Z,58.58
2018-09-16T03:02:10.609Z,59.34
2018-09-16T03:04:41.089Z,58.20
2018-09-16T03:07:09.967Z,58.64
2018-09-16T03:09:39.188Z,58.43
2018-09-16T03:12:08.083Z,58.88
2018-09-16T03:14:37.143Z,58.88
2018-09-16T03:17:06.570Z,57.97
2018-09-16T03:19:35.652Z,58.72
2018-09-16T03:22:04.607Z,57.64
2018-09-16T03:24:33.509Z,57.67
2018-09-16T03:27:02.440Z,58.00
2018-09-16T03:29:31.486Z,58.22
2018-09-16T03:32:00.464Z,58.12
2018-09-16T03:34:29.670Z,58.30
2018-09-16T03:36:58.572Z,58.96
2018-09-16T03:39:27.509Z,59.64
2018-09-16T03:41:56.428Z,59.06
2018-09-16T03:44:25.335Z,59.51
2018-09-16T03:46:54.332Z,59.17
2018-09-16T03:49:23.303Z,59.55
2018-09-16T03:51:52.210Z,58.48
2018-09-16T03:54:21.096Z,59.49
2018-09-16T03:56:49.992Z,58.73
2018-09-16T03:59:18.877Z,57.98
2018-09-16T04:01:47.755Z,57.61
2018-09-16T04:04:16.633Z,58.28
2018-09-16T04:06:45.551Z,57.93
2018-09-16T04:09:14.474Z,58.44
2018-09-16T04:11:43.444Z,57.29
2018-09-16T04:14:12.331Z,57.25
2018-09-16T04:16:41.207Z,57.14
2018-09-16T04:19:10.130Z,57.22
2018-09-16T04:21:39.023Z,57.84
2018-09-16T04:24:08.036Z,59.27
2018-09-16T04:26:36.971Z,60.30
2018-09-16T04:29:05.949Z,60.37
2018-09-16T04:31:34.975Z,61.27
2018-09-16T04:34:03.939Z,60.59
2018-09-16T04:36:32.956Z,60.49
2018-09-16T04:39:01.860Z,61.11
2018-09-16T04:41:30.776Z,60.76
2018-09-16T04:43:59.671Z,60.46
2018-09-16T04:46:28.598Z,59.77
2018-09-16T04:48:57.513Z,58.38
2018-09-16T04:51:26.405Z,59.38
2018-09-16T04:53:55.312Z,57.76
2018-09-16T04:56:24.254Z,58.41
2018-09-16T04:58:53.191Z,59.62
2018-09-16T05:01:22.103Z,60.07
2018-09-16T05:03:51.008Z,59.18
2018-09-16T05:06:19.920Z,59.06
2018-09-16T05:08:48.931Z,58.90
2018-09-16T05:11:17.828Z,57.71
2018-09-16T05:13:46.732Z,59.39
2018-09-16T05:16:15.675Z,61.30
2018-09-16T05:18:44.608Z,58.81
2018-09-16T05:21:13.520Z,56.68
2018-09-16T05:23:42.494Z,55.99
2018-09-16T05:26:11.476Z,56.68
2018-09-16T05:28:40.393Z,57.71
2018-09-16T05:31:09.384Z,57.95
2018-09-16T05:33:38.328Z,57.66
2018-09-16T05:36:07.316Z,55.02
2018-09-16T05:38:36.202Z,56.15
2018-09-16T05:41:05.195Z,54.52
2018-09-16T05:43:34.086Z,54.84
2018-09-16T05:48:30.824Z,55.79
2018-09-16T05:50:59.716Z,53.58
2018-09-16T05:53:28.724Z,54.35
2018-09-16T05:55:57.578Z,54.64
2018-09-16T05:58:26.493Z,54.63
2018-09-16T06:00:55.382Z,55.35
2018-09-16T06:03:24.274Z,54.62
2018-09-16T06:05:53.171Z,53.33
2018-09-16T06:08:22.116Z,53.74
2018-09-16T06:10:51.095Z,53.05
2018-09-16T06:13:19.952Z,52.77
2018-09-16T06:15:48.911Z,54.35
2018-09-16T06:18:17.871Z,53.27
2018-09-16T06:20:46.759Z,52.60
2018-09-16T06:23:15.651Z,54.25
2018-09-16T06:25:44.665Z,51.24
2018-09-16T06:28:13.542Z,51.35
2018-09-16T06:30:42.503Z,52.03
2018-09-16T06:33:11.400Z,52.44
2018-09-16T06:35:40.283Z,53.14
2018-09-16T06:38:09.178Z,53.06
2018-09-16T06:40:38.088Z,53.20
2018-09-16T06:43:07.096Z,51.85
2018-09-16T06:45:36.772Z,53.17
2018-09-16T06:48:05.731Z,54.10
2018-09-16T06:50:34.700Z,53.55
2018-09-16T06:53:03.701Z,51.87
2018-09-16T06:55:32.707Z,52.00
2018-09-16T06:58:01.570Z,51.88
2018-09-16T07:00:30.472Z,51.28
2018-09-16T07:02:59.426Z,52.51
2018-09-16T07:05:28.310Z,52.51
2018-09-16T07:07:57.260Z,52.69
2018-09-16T07:10:26.182Z,53.63
2018-09-16T07:12:55.083Z,52.21
2018-09-16T07:15:24.052Z,51.34
2018-09-16T07:17:52.967Z,52.98
2018-09-16T07:20:21.849Z,53.24
2018-09-16T07:22:50.768Z,51.16
2018-09-16T07:25:19.660Z,53.08
2018-09-16T07:27:48.567Z,52.31
2018-09-16T07:30:17.459Z,51.42
2018-09-16T07:32:46.427Z,51.64
2018-09-16T07:35:15.323Z,50.28
2018-09-16T07:37:44.208Z,50.52
2018-09-16T07:40:13.117Z,50.38
2018-09-16T07:42:42.042Z,50.96
2018-09-16T07:45:10.976Z,50.74
2018-09-16T07:47:39.860Z,51.67
2018-09-16T07:50:08.975Z,51.64
2018-09-16T07:52:37.868Z,51.47
2018-09-16T07:55:06.860Z,51.56
2018-09-16T07:57:35.734Z,51.93
2018-09-16T08:00:04.754Z,52.59
2018-09-16T08:02:33.635Z,52.57
2018-09-16T08:05:02.687Z,52.29
2018-09-16T08:07:31.618Z,52.90
2018-09-16T08:10:00.503Z,53.25
2018-09-16T08:12:29.415Z,52.84
2018-09-16T08:14:58.296Z,53.87
2018-09-16T08:17:27.180Z,53.30
2018-09-16T08:19:56.064Z,54.42
2018-09-16T08:22:25.008Z,53.78
2018-09-16T08:24:53.939Z,53.72
2018-09-16T08:27:22.886Z,53.32
2018-09-16T08:29:51.794Z,53.37
2018-09-16T08:32:20.669Z,52.73
2018-09-16T08:34:49.563Z,53.09
2018-09-16T08:37:18.491Z,54.03
2018-09-16T08:39:47.384Z,53.37
2018-09-16T08:42:16.267Z,53.27
2018-09-16T08:44:45.206Z,52.81
2018-09-16T08:47:14.080Z,53.27
2018-09-16T08:49:42.963Z,53.24
2018-09-16T08:52:11.885Z,53.19
2018-09-16T08:54:40.788Z,53.05
2018-09-16T08:57:09.664Z,53.33
2018-09-16T08:59:38.564Z,53.38
2018-09-16T09:02:07.767Z,53.97
2018-09-16T09:04:36.720Z,52.99
2018-09-16T09:07:05.693Z,52.89
2018-09-16T09:09:34.569Z,53.01
2018-09-16T09:12:03.470Z,52.94
2018-09-16T09:14:32.378Z,51.98
2018-09-16T09:17:01.260Z,52.72
2018-09-16T09:19:30.161Z,53.06
2018-09-16T09:21:59.028Z,52.00
2018-09-16T09:24:27.936Z,52.64
2018-09-16T09:26:56.809Z,52.18
2018-09-16T09:29:25.779Z,52.81
2018-09-16T09:31:54.655Z,51.89
2018-09-16T09:34:23.543Z,51.78
2018-09-16T09:36:52.503Z,51.30
2018-09-16T09:39:21.386Z,51.88
2018-09-16T09:41:50.288Z,51.66
2018-09-16T09:44:19.274Z,50.79
2018-09-16T09:46:48.159Z,50.72
2018-09-16T09:49:17.047Z,51.03
2018-09-16T09:51:46.005Z,49.49
2018-09-16T09:54:14.884Z,50.03
2018-09-16T09:56:43.782Z,50.42
2018-09-16T09:59:12.691Z,50.45
2018-09-16T10:01:41.632Z,51.03
2018-09-16T10:04:10.590Z,50.62
2018-09-16T10:06:39.498Z,50.76
2018-09-16T10:09:10.210Z,52.18
2018-09-16T10:11:39.210Z,52.45
2018-09-16T10:14:08.439Z,49.24
2018-09-16T10:16:37.363Z,50.16
2018-09-16T10:19:06.278Z,49.93
2018-09-16T10:21:35.167Z,49.23
2018-09-16T10:24:04.074Z,49.29
2018-09-16T10:26:32.999Z,48.93
2018-09-16T10:29:01.889Z,49.49
2018-09-16T10:31:30.796Z,49.19
2018-09-16T10:33:59.671Z,49.06
2018-09-16T10:36:28.655Z,47.71
2018-09-16T10:38:57.597Z,47.72
2018-09-16T10:41:26.459Z,47.33
2018-09-16T10:43:55.343Z,47.65
2018-09-16T10:46:24.227Z,48.17
2018-09-16T10:48:53.120Z,46.93
2018-09-16T10:51:22.092Z,47.17
2018-09-16T10:53:51.011Z,45.81
2018-09-16T10:56:19.908Z,45.80
2018-09-16T10:58:48.815Z,46.20
2018-09-16T11:01:17.720Z,46.40
2018-09-16T11:03:46.708Z,45.94
2018-09-16T11:06:15.588Z,46.63
2018-09-16T11:08:44.509Z,45.37
2018-09-16T11:11:13.707Z,46.43
2018-09-16T11:13:42.592Z,44.16
2018-09-16T11:16:11.506Z,44.97
2018-09-16T11:18:40.467Z,45.62
2018-09-16T11:21:09.384Z,45.96
2018-09-16T11:23:38.269Z,46.13
2018-09-16T11:26:07.251Z,46.59
2018-09-16T11:28:36.153Z,45.72
2018-09-16T11:31:05.076Z,46.08
2018-09-16T11:33:33.983Z,45.62
2018-09-16T11:36:02.897Z,45.98
2018-09-16T11:38:31.905Z,46.15
2018-09-16T11:41:00.834Z,45.00
2018-09-16T11:43:29.735Z,45.70
2018-09-16T11:45:58.628Z,45.47
2018-09-16T11:48:27.793Z,45.53
2018-09-16T11:50:56.724Z,45.62
2018-09-16T11:53:25.610Z,46.63
2018-09-16T11:55:54.594Z,46.64
2018-09-16T11:58:23.516Z,47.17
2018-09-16T12:00:52.523Z,45.83
2018-09-16T12:03:21.419Z,45.54
2018-09-16T12:05:50.411Z,46.38
2018-09-16T12:08:19.306Z,45.50
2018-09-16T12:10:48.216Z,46.19
2018-09-16T12:13:17.141Z,45.71
2018-09-16T12:15:46.076Z,45.98
2018-09-16T12:18:14.986Z,46.24
2018-09-16T12:20:44.030Z,44.99
2018-09-16T12:23:12.995Z,45.20
2018-09-16T12:25:41.886Z,46.02
2018-09-16T12:28:10.867Z,46.01
2018-09-16T12:30:39.763Z,45.88
2018-09-16T12:33:08.685Z,46.91
2018-09-16T12:35:37.788Z,45.42
2018-09-16T12:38:06.774Z,45.79
2018-09-16T12:40:35.959Z,45.35
2018-09-16T12:43:04.946Z,45.82
2018-09-16T12:45:33.868Z,45.08
2018-09-16T12:48:02.771Z,46.28
2018-09-16T12:50:31.930Z,46.12
2018-09-16T12:53:00.811Z,46.03
2018-09-16T12:55:29.822Z,45.22
2018-09-16T12:57:58.753Z,45.00
2018-09-16T13:00:27.656Z,44.94
2018-09-16T13:02:56.579Z,45.20
2018-09-16T13:05:25.484Z,44.40
2018-09-16T13:07:54.375Z,44.52
2018-09-16T13:10:23.265Z,41.96
2018-09-16T13:12:52.219Z,43.96
2018-09-16T13:15:21.175Z,43.59
2018-09-16T13:17:50.068Z,42.26
2018-09-16T13:20:19.445Z,42.76
2018-09-16T13:22:48.644Z,43.65
2018-09-16T13:25:17.604Z,43.19
2018-09-16T13:27:46.507Z,42.71
2018-09-16T13:30:15.432Z,43.62
2018-09-16T13:32:44.338Z,43.93
2018-09-16T13:35:13.284Z,43.97
2018-09-16T13:37:42.205Z,43.81
2018-09-16T13:40:11.320Z,43.59
2018-09-16T13:42:40.210Z,43.36
2018-09-16T13:45:09.112Z,42.47
2018-09-16T13:47:38.013Z,43.71
2018-09-16T13:50:07.389Z,42.86
2018-09-16T13:52:36.352Z,43.12
2018-09-16T13:55:05.349Z,42.79
2018-09-16T13:57:34.620Z,43.35
2018-09-16T14:00:04.969Z,43.01
2018-09-16T14:02:34.028Z,43.42
2018-09-16T14:05:03.044Z,43.10
2018-09-16T14:07:32.235Z,43.00
2018-09-16T14:10:01.284Z,44.00
2018-09-16T14:12:30.168Z,43.86
2018-09-16T14:14:59.106Z,43.40
2018-09-16T14:17:28.008Z,44.93
2018-09-16T14:19:57.009Z,44.41
2018-09-16T14:22:25.960Z,43.93
2018-09-16T14:24:54.855Z,45.17
2018-09-16T14:27:23.756Z,45.50
2018-09-16T14:29:52.704Z,44.89
2018-09-16T14:32:22.171Z,45.34
2018-09-16T14:34:51.137Z,45.61
2018-09-16T14:37:20.123Z,45.79
2018-09-16T14:39:49.031Z,45.10
2018-09-16T14:42:17.937Z,44.76
2018-09-16T14:44:46.841Z,44.90
2018-09-16T14:47:15.762Z,44.58
2018-09-16T14:49:44.669Z,44.78
2018-09-16T14:52:13.592Z,44.78
2018-09-16T14:54:42.590Z,45.30
2018-09-16T14:57:11.526Z,44.77
2018-09-16T14:59:40.431Z,45.57
2018-09-16T15:02:09.432Z,45.42
2018-09-16T15:04:38.326Z,45.17
2018-09-16T15:07:07.480Z,44.79
2018-09-16T15:09:36.524Z,45.43
2018-09-16T15:12:05.447Z,44.36
2018-09-16T15:14:34.348Z,44.34
2018-09-16T15:17:03.312Z,44.37
2018-09-16T15:19:32.391Z,45.47
2018-09-16T15:22:01.285Z,45.39
2018-09-16T15:24:30.167Z,45.43
2018-09-16T15:26:59.123Z,46.67
2018-09-16T15:29:27.992Z,46.94
2018-09-16T15:31:56.904Z,46.03
2018-09-16T15:34:25.804Z,46.87
2018-09-16T15:36:54.967Z,46.43
2018-09-16T15:39:23.991Z,46.39
2018-09-16T15:41:52.983Z,47.25
2018-09-16T15:44:21.869Z,47.44
2018-09-16T15:46:50.764Z,47.66
2018-09-16T15:49:19.665Z,48.78
2018-09-16T15:51:48.588Z,48.44
2018-09-16T15:54:17.536Z,48.57
2018-09-16T15:56:46.470Z,48.06
2018-09-16T15:59:15.369Z,48.74
2018-09-16T16:01:45.192Z,48.91
2018-09-16T16:04:14.096Z,49.02
2018-09-16T16:06:42.997Z,49.08
2018-09-16T16:09:12.547Z,49.32
2018-09-16T16:11:41.756Z,49.36
2018-09-16T16:14:10.656Z,48.50
2018-09-16T16:16:39.695Z,48.45
2018-09-16T16:19:08.599Z,48.71
2018-09-16T16:21:37.557Z,49.87
2018-09-16T16:24:06.665Z,49.79
2018-09-16T16:26:35.589Z,49.76
2018-09-16T16:29:04.525Z,49.62
2018-09-16T16:31:33.559Z,49.00
2018-09-16T16:34:02.523Z,49.74
2018-09-16T16:36:31.476Z,49.06
2018-09-16T16:39:00.379Z,49.98
2018-09-16T16:41:29.274Z,48.85
2018-09-16T16:43:58.164Z,52.42
2018-09-16T16:46:27.115Z,49.93
2018-09-16T16:48:56.000Z,49.51
2018-09-16T16:51:24.888Z,50.46
2018-09-16T16:53:53.795Z,56.16
2018-09-16T16:56:22.672Z,49.85
2018-09-16T16:58:51.598Z,50.37
2018-09-16T17:01:20.552Z,53.30
2018-09-16T17:03:49.414Z,50.22
2018-09-16T17:06:18.304Z,53.79
2018-09-16T17:08:47.350Z,56.80
2018-09-16T17:11:16.336Z,55.95
2018-09-16T17:13:45.255Z,57.59
2018-09-16T17:16:14.413Z,55.21
2018-09-16T17:18:43.324Z,57.38
2018-09-16T17:21:12.279Z,56.43
2018-09-16T17:23:41.254Z,51.38
2018-09-16T17:26:10.232Z,52.91
2018-09-16T17:28:39.132Z,52.24
2018-09-16T17:31:08.086Z,54.87
2018-09-16T17:33:37.028Z,54.50
2018-09-16T17:36:05.959Z,54.18
2018-09-16T17:38:34.945Z,52.17
2018-09-16T17:41:03.805Z,50.54
2018-09-16T17:43:32.755Z,50.44
2018-09-16T17:46:01.769Z,51.23
2018-09-16T17:48:30.732Z,52.79
2018-09-16T17:50:59.776Z,52.36
2018-09-16T17:53:28.617Z,52.13
2018-09-16T17:55:57.512Z,50.33
2018-09-16T17:58:26.392Z,50.53
2018-09-16T18:00:55.310Z,52.22
2018-09-16T18:03:24.208Z,52.10
2018-09-16T18:05:53.117Z,52.34
2018-09-16T18:08:52.616Z,52.22
2018-09-16T18:11:21.578Z,51.61
2018-09-16T18:13:50.472Z,50.70
2018-09-16T18:16:19.371Z,50.99
2018-09-16T18:18:48.280Z,51.01
2018-09-16T18:21:17.466Z,51.91
2018-09-16T18:23:46.455Z,51.48
2018-09-16T18:26:15.429Z,50.39
2018-09-16T18:28:44.342Z,50.20
2018-09-16T18:31:13.241Z,51.30
2018-09-16T18:33:42.209Z,52.10
2018-09-16T18:36:11.128Z,50.13
2018-09-16T18:38:40.064Z,49.45
2018-09-16T18:41:09.008Z,50.42
2018-09-16T18:43:37.887Z,50.18
2018-09-16T18:46:06.807Z,49.91
2018-09-16T18:48:35.732Z,49.60
2018-09-16T18:51:04.639Z,50.19
2018-09-16T18:53:33.516Z,50.62
2018-09-16T18:56:03.052Z,50.89
2018-09-16T18:58:31.959Z,50.23
2018-09-16T19:01:00.839Z,50.81
2018-09-16T19:03:29.749Z,50.80
2018-09-16T19:06:00.045Z,51.12
2018-09-16T19:08:35.584Z,51.07
2018-09-16T19:11:05.290Z,51.44
2018-09-16T19:13:34.267Z,51.60
2018-09-16T19:16:03.168Z,51.08
2018-09-16T19:18:32.161Z,50.86
2018-09-16T19:21:01.019Z,51.27
2018-09-16T19:23:29.908Z,51.39
2018-09-16T19:25:58.800Z,50.93
2018-09-16T19:28:27.760Z,51.67
2018-09-16T19:30:56.695Z,50.98
2018-09-16T19:33:25.590Z,50.86
2018-09-16T19:35:54.488Z,51.64
2018-09-16T19:38:23.372Z,51.49
2018-09-16T19:40:52.433Z,50.98
2018-09-16T19:43:21.332Z,51.92
2018-09-16T19:45:50.233Z,51.75
2018-09-16T19:48:19.128Z,52.20
2018-09-16T19:50:48.018Z,51.48
2018-09-16T19:53:16.940Z,52.30
2018-09-16T19:55:45.847Z,51.88
2018-09-16T19:58:14.743Z,52.73
2018-09-16T20:00:43.617Z,52.50
2018-09-16T20:03:12.616Z,51.94
2018-09-16T20:05:41.508Z,51.94
2018-09-16T20:08:10.413Z,52.55
2018-09-16T20:10:39.379Z,52.10
2018-09-16T20:13:08.344Z,52.54
2018-09-16T20:15:37.372Z,52.64
2018-09-16T20:18:06.342Z,50.36
2018-09-16T20:20:35.291Z,51.88
2018-09-16T20:23:04.196Z,52.63
2018-09-16T20:25:33.174Z,51.45
2018-09-16T20:28:02.094Z,51.37
2018-09-16T20:30:30.996Z,52.25
2018-09-16T20:33:00.002Z,51.56
2018-09-16T20:35:28.974Z,51.65
2018-09-16T20:37:57.884Z,52.00
2018-09-16T20:40:26.851Z,51.43
2018-09-16T20:42:55.831Z,51.83
2018-09-16T20:45:24.699Z,50.97
2018-09-16T20:47:53.664Z,52.35
2018-09-16T20:50:22.596Z,51.05
2018-09-16T20:52:51.487Z,51.71
2018-09-16T20:55:20.440Z,51.71
2018-09-16T20:57:49.511Z,51.40
2018-09-16T21:00:18.415Z,51.75
2018-09-16T21:02:47.403Z,50.41
2018-09-16T21:05:16.426Z,51.10
2018-09-16T21:07:45.360Z,51.04
2018-09-16T21:10:14.437Z,52.40
2018-09-16T21:12:43.316Z,51.35
2018-09-16T21:15:12.257Z,51.84
2018-09-16T21:17:41.179Z,51.55
2018-09-16T21:20:10.136Z,51.01
2018-09-16T21:22:39.035Z,50.39
2018-09-16T21:25:08.040Z,51.31
2018-09-16T21:27:36.973Z,51.00
2018-09-16T21:30:05.988Z,50.27
2018-09-16T21:32:34.936Z,50.34
2018-09-16T21:35:03.881Z,50.57
2018-09-16T21:37:32.873Z,50.17
2018-09-16T21:40:01.761Z,50.31
2018-09-16T21:42:30.663Z,51.37
2018-09-16T21:44:59.621Z,51.62
2018-09-16T21:47:28.582Z,51.11
2018-09-16T21:49:57.488Z,52.09
2018-09-16T21:52:26.374Z,51.03
2018-09-16T21:54:55.333Z,51.56
2018-09-16T21:57:24.284Z,51.80
2018-09-16T21:59:53.184Z,50.97
2018-09-16T22:02:22.091Z,52.10
2018-09-16T22:04:51.077Z,52.10
2018-09-16T22:07:19.952Z,52.43
2018-09-16T22:09:48.856Z,52.79
2018-09-16T22:12:17.794Z,52.49
2018-09-16T22:14:46.683Z,53.47
2018-09-16T22:17:15.623Z,53.43
2018-09-16T22:19:44.507Z,52.74
2018-09-16T22:22:13.452Z,53.95
2018-09-16T22:24:42.370Z,53.79
2018-09-16T22:27:11.260Z,53.07
2018-09-16T22:29:40.182Z,54.37
2018-09-16T22:32:09.172Z,53.51
2018-09-16T22:34:38.142Z,53.60
2018-09-16T22:37:07.046Z,54.60
2018-09-16T22:39:35.939Z,54.42
2018-09-16T22:42:04.955Z,54.57
2018-09-16T22:44:33.908Z,55.04
2018-09-16T22:47:02.824Z,54.99
2018-09-16T22:49:31.820Z,54.89
2018-09-16T22:52:00.717Z,54.99
2018-09-16T22:54:29.618Z,55.65
2018-09-16T22:56:58.633Z,55.37
2018-09-16T22:59:27.570Z,56.28
2018-09-16T23:01:56.486Z,55.68
2018-09-16T23:04:25.422Z,55.45
2018-09-16T23:06:54.374Z,55.64
2018-09-16T23:09:23.273Z,55.71
2018-09-16T23:11:52.293Z,56.06
2018-09-16T23:14:21.167Z,56.69
2018-09-16T23:16:50.088Z,56.23
2018-09-16T23:19:19.067Z,56.81
2018-09-16T23:21:48.531Z,56.61
2018-09-16T23:24:18.195Z,56.71
2018-09-16T23:26:47.113Z,57.13
2018-09-16T23:29:17.243Z,56.53
2018-09-16T23:31:46.183Z,56.74
2018-09-16T23:34:15.091Z,56.76
2018-09-16T23:36:44.095Z,56.59
2018-09-16T23:39:12.975Z,56.60
2018-09-16T23:41:41.953Z,56.89
2018-09-16T23:44:10.884Z,57.03
2018-09-16T23:46:39.828Z,57.11
2018-09-16T23:49:08.751Z,57.46
2018-09-16T23:51:37.644Z,57.50
2018-09-16T23:54:08.100Z,57.55
2018-09-16T23:56:36.984Z,57.83
2018-09-16T23:59:05.941Z,57.84
